sensor_id;sensor_type;location;lat;lon;timestamp;P1;durP1;ratioP1;P2;durP2;ratioP2
68484;SDS011;55472;50.060;21.960;2024-02-21T00:00:07;16.23;;;5.32;;
68484;SDS011;55472;50.060;21.960;2024-02-21T00:02:56;15.30;;;5.20;;
68484;SDS011;55472;50.060;21.960;2024-02-21T00:05:24;12.77;;;4.68;;
68484;SDS011;55472;50.060;21.960;2024-02-21T00:07:50;12.93;;;4.80;;
68484;SDS011;55472;50.060;21.960;2024-02-21T00:10:16;13.57;;;5.00;;
68484;SDS011;55472;50.060;21.960;2024-02-21T00:12:43;14.05;;;4.97;;
68484;SDS011;55472;50.060;21.960;2024-02-21T00:15:09;11.27;;;4.17;;
68484;SDS011;55472;50.060;21.960;2024-02-21T00:17:36;12.55;;;4.80;;
68484;SDS011;55472;50.060;21.960;2024-02-21T00:20:02;13.07;;;4.72;;
68484;SDS011;55472;50.060;21.960;2024-02-21T00:22:28;12.23;;;4.35;;
68484;SDS011;55472;50.060;21.960;2024-02-21T00:24:56;11.37;;;4.50;;
68484;SDS011;55472;50.060;21.960;2024-02-21T00:27:23;12.30;;;4.47;;
68484;SDS011;55472;50.060;21.960;2024-02-21T00:29:49;12.20;;;4.80;;
68484;SDS011;55472;50.060;21.960;2024-02-21T00:32:15;12.15;;;4.32;;
68484;SDS011;55472;50.060;21.960;2024-02-21T00:34:41;11.88;;;4.20;;
68484;SDS011;55472;50.060;21.960;2024-02-21T00:37:08;12.90;;;4.90;;
68484;SDS011;55472;50.060;21.960;2024-02-21T00:39:34;11.18;;;4.25;;
68484;SDS011;55472;50.060;21.960;2024-02-21T00:42:01;12.25;;;4.45;;
68484;SDS011;55472;50.060;21.960;2024-02-21T00:44:26;12.90;;;4.95;;
68484;SDS011;55472;50.060;21.960;2024-02-21T00:46:53;12.13;;;4.95;;
68484;SDS011;55472;50.060;21.960;2024-02-21T00:49:19;12.27;;;4.73;;
68484;SDS011;55472;50.060;21.960;2024-02-21T00:51:45;14.38;;;4.60;;
68484;SDS011;55472;50.060;21.960;2024-02-21T00:54:11;12.38;;;5.03;;
68484;SDS011;55472;50.060;21.960;2024-02-21T00:56:37;16.20;;;5.85;;
68484;SDS011;55472;50.060;21.960;2024-02-21T00:59:03;16.83;;;6.03;;
68484;SDS011;55472;50.060;21.960;2024-02-21T01:01:29;16.38;;;5.65;;
68484;SDS011;55472;50.060;21.960;2024-02-21T01:03:55;13.00;;;4.95;;
68484;SDS011;55472;50.060;21.960;2024-02-21T01:06:22;16.50;;;5.35;;
68484;SDS011;55472;50.060;21.960;2024-02-21T01:08:48;14.50;;;5.43;;
68484;SDS011;55472;50.060;21.960;2024-02-21T01:11:15;13.82;;;5.40;;
68484;SDS011;55472;50.060;21.960;2024-02-21T01:13:41;11.57;;;4.65;;
68484;SDS011;55472;50.060;21.960;2024-02-21T01:16:08;12.55;;;5.00;;
68484;SDS011;55472;50.060;21.960;2024-02-21T01:18:34;11.27;;;4.85;;
68484;SDS011;55472;50.060;21.960;2024-02-21T01:21:03;13.80;;;5.20;;
68484;SDS011;55472;50.060;21.960;2024-02-21T01:23:35;13.55;;;5.50;;
68484;SDS011;55472;50.060;21.960;2024-02-21T01:26:02;13.25;;;5.03;;
68484;SDS011;55472;50.060;21.960;2024-02-21T01:28:29;11.20;;;4.47;;
68484;SDS011;55472;50.060;21.960;2024-02-21T01:30:56;12.40;;;4.93;;
68484;SDS011;55472;50.060;21.960;2024-02-21T01:33:22;16.80;;;5.40;;
68484;SDS011;55472;50.060;21.960;2024-02-21T01:35:49;13.32;;;5.07;;
68484;SDS011;55472;50.060;21.960;2024-02-21T01:38:15;15.95;;;5.38;;
68484;SDS011;55472;50.060;21.960;2024-02-21T01:40:41;15.32;;;4.85;;
68484;SDS011;55472;50.060;21.960;2024-02-21T01:43:17;13.32;;;5.45;;
68484;SDS011;55472;50.060;21.960;2024-02-21T01:45:50;13.43;;;4.93;;
68484;SDS011;55472;50.060;21.960;2024-02-21T01:48:24;13.32;;;5.15;;
68484;SDS011;55472;50.060;21.960;2024-02-21T01:50:51;12.90;;;4.65;;
68484;SDS011;55472;50.060;21.960;2024-02-21T01:53:21;12.07;;;4.88;;
68484;SDS011;55472;50.060;21.960;2024-02-21T01:55:53;11.23;;;5.07;;
68484;SDS011;55472;50.060;21.960;2024-02-21T01:58:20;11.53;;;4.53;;
68484;SDS011;55472;50.060;21.960;2024-02-21T02:03:22;11.75;;;4.80;;
68484;SDS011;55472;50.060;21.960;2024-02-21T02:05:51;10.85;;;4.53;;
68484;SDS011;55472;50.060;21.960;2024-02-21T02:08:17;9.90;;;4.13;;
68484;SDS011;55472;50.060;21.960;2024-02-21T02:10:47;10.43;;;3.83;;
68484;SDS011;55472;50.060;21.960;2024-02-21T02:13:14;11.55;;;4.28;;
68484;SDS011;55472;50.060;21.960;2024-02-21T02:15:47;13.02;;;4.65;;
68484;SDS011;55472;50.060;21.960;2024-02-21T02:18:14;8.57;;;3.70;;
68484;SDS011;55472;50.060;21.960;2024-02-21T02:20:46;10.88;;;4.00;;
68484;SDS011;55472;50.060;21.960;2024-02-21T02:23:23;11.50;;;3.90;;
68484;SDS011;55472;50.060;21.960;2024-02-21T02:25:59;10.07;;;4.15;;
68484;SDS011;55472;50.060;21.960;2024-02-21T02:28:28;9.68;;;3.67;;
68484;SDS011;55472;50.060;21.960;2024-02-21T02:30:54;11.05;;;3.65;;
68484;SDS011;55472;50.060;21.960;2024-02-21T02:33:20;9.70;;;3.80;;
68484;SDS011;55472;50.060;21.960;2024-02-21T02:35:46;10.02;;;3.40;;
68484;SDS011;55472;50.060;21.960;2024-02-21T02:38:12;8.73;;;3.58;;
68484;SDS011;55472;50.060;21.960;2024-02-21T02:40:39;11.13;;;3.83;;
68484;SDS011;55472;50.060;21.960;2024-02-21T02:43:08;9.63;;;3.30;;
68484;SDS011;55472;50.060;21.960;2024-02-21T02:45:35;7.90;;;3.20;;
68484;SDS011;55472;50.060;21.960;2024-02-21T02:48:01;7.95;;;3.08;;
68484;SDS011;55472;50.060;21.960;2024-02-21T02:50:27;7.35;;;2.90;;
68484;SDS011;55472;50.060;21.960;2024-02-21T02:52:53;9.50;;;3.10;;
68484;SDS011;55472;50.060;21.960;2024-02-21T02:55:20;8.77;;;3.38;;
68484;SDS011;55472;50.060;21.960;2024-02-21T02:57:46;8.20;;;3.13;;
68484;SDS011;55472;50.060;21.960;2024-02-21T03:00:13;8.75;;;2.83;;
68484;SDS011;55472;50.060;21.960;2024-02-21T03:02:40;8.73;;;3.00;;
68484;SDS011;55472;50.060;21.960;2024-02-21T03:05:12;8.32;;;3.13;;
68484;SDS011;55472;50.060;21.960;2024-02-21T03:07:43;8.05;;;2.92;;
68484;SDS011;55472;50.060;21.960;2024-02-21T03:10:10;8.70;;;3.00;;
68484;SDS011;55472;50.060;21.960;2024-02-21T03:12:36;7.35;;;2.67;;
68484;SDS011;55472;50.060;21.960;2024-02-21T03:15:03;8.00;;;3.00;;
68484;SDS011;55472;50.060;21.960;2024-02-21T03:17:30;7.88;;;2.72;;
68484;SDS011;55472;50.060;21.960;2024-02-21T03:19:58;9.13;;;2.78;;
68484;SDS011;55472;50.060;21.960;2024-02-21T03:22:26;7.93;;;2.80;;
68484;SDS011;55472;50.060;21.960;2024-02-21T03:24:53;12.43;;;3.25;;
68484;SDS011;55472;50.060;21.960;2024-02-21T03:27:19;9.40;;;3.42;;
68484;SDS011;55472;50.060;21.960;2024-02-21T03:29:45;10.93;;;3.17;;
68484;SDS011;55472;50.060;21.960;2024-02-21T03:32:11;9.10;;;3.40;;
68484;SDS011;55472;50.060;21.960;2024-02-21T03:34:37;9.50;;;3.10;;
68484;SDS011;55472;50.060;21.960;2024-02-21T03:37:03;10.55;;;3.60;;
68484;SDS011;55472;50.060;21.960;2024-02-21T03:39:31;12.05;;;4.07;;
68484;SDS011;55472;50.060;21.960;2024-02-21T03:41:58;13.45;;;4.72;;
68484;SDS011;55472;50.060;21.960;2024-02-21T03:44:26;11.87;;;3.70;;
68484;SDS011;55472;50.060;21.960;2024-02-21T03:46:52;9.65;;;3.53;;
68484;SDS011;55472;50.060;21.960;2024-02-21T03:49:19;7.85;;;2.75;;
68484;SDS011;55472;50.060;21.960;2024-02-21T03:51:45;8.68;;;2.88;;
68484;SDS011;55472;50.060;21.960;2024-02-21T03:54:11;7.88;;;2.63;;
68484;SDS011;55472;50.060;21.960;2024-02-21T03:56:37;7.43;;;2.53;;
68484;SDS011;55472;50.060;21.960;2024-02-21T03:59:08;8.98;;;2.92;;
68484;SDS011;55472;50.060;21.960;2024-02-21T04:01:34;7.53;;;2.70;;
68484;SDS011;55472;50.060;21.960;2024-02-21T04:04:01;9.05;;;3.17;;
68484;SDS011;55472;50.060;21.960;2024-02-21T04:06:28;10.63;;;3.60;;
68484;SDS011;55472;50.060;21.960;2024-02-21T04:08:54;8.50;;;2.90;;
68484;SDS011;55472;50.060;21.960;2024-02-21T04:11:20;10.27;;;3.60;;
68484;SDS011;55472;50.060;21.960;2024-02-21T04:13:47;8.02;;;2.90;;
68484;SDS011;55472;50.060;21.960;2024-02-21T04:16:15;8.98;;;3.10;;
68484;SDS011;55472;50.060;21.960;2024-02-21T04:18:42;10.02;;;3.25;;
68484;SDS011;55472;50.060;21.960;2024-02-21T04:21:09;11.90;;;3.23;;
68484;SDS011;55472;50.060;21.960;2024-02-21T04:23:36;9.45;;;2.70;;
68484;SDS011;55472;50.060;21.960;2024-02-21T04:26:02;7.75;;;2.60;;
68484;SDS011;55472;50.060;21.960;2024-02-21T04:28:28;7.97;;;2.63;;
68484;SDS011;55472;50.060;21.960;2024-02-21T04:30:54;9.18;;;2.97;;
68484;SDS011;55472;50.060;21.960;2024-02-21T04:33:20;9.00;;;2.63;;
68484;SDS011;55472;50.060;21.960;2024-02-21T04:35:46;11.38;;;2.55;;
68484;SDS011;55472;50.060;21.960;2024-02-21T04:38:13;6.07;;;2.20;;
68484;SDS011;55472;50.060;21.960;2024-02-21T04:40:40;10.18;;;2.50;;
68484;SDS011;55472;50.060;21.960;2024-02-21T04:43:06;7.63;;;2.10;;
68484;SDS011;55472;50.060;21.960;2024-02-21T04:45:32;6.27;;;1.77;;
68484;SDS011;55472;50.060;21.960;2024-02-21T04:47:58;6.53;;;2.10;;
68484;SDS011;55472;50.060;21.960;2024-02-21T04:50:24;9.35;;;2.90;;
68484;SDS011;55472;50.060;21.960;2024-02-21T04:52:50;8.73;;;2.35;;
68484;SDS011;55472;50.060;21.960;2024-02-21T04:55:16;8.53;;;2.30;;
68484;SDS011;55472;50.060;21.960;2024-02-21T04:57:42;8.07;;;2.28;;
68484;SDS011;55472;50.060;21.960;2024-02-21T05:00:08;9.18;;;2.20;;
68484;SDS011;55472;50.060;21.960;2024-02-21T05:02:36;5.90;;;1.92;;
68484;SDS011;55472;50.060;21.960;2024-02-21T05:05:02;7.83;;;2.27;;
68484;SDS011;55472;50.060;21.960;2024-02-21T05:07:28;7.75;;;2.10;;
68484;SDS011;55472;50.060;21.960;2024-02-21T05:09:54;6.75;;;2.00;;
68484;SDS011;55472;50.060;21.960;2024-02-21T05:12:20;8.18;;;2.30;;
68484;SDS011;55472;50.060;21.960;2024-02-21T05:14:47;8.63;;;2.63;;
68484;SDS011;55472;50.060;21.960;2024-02-21T05:17:15;10.07;;;3.67;;
68484;SDS011;55472;50.060;21.960;2024-02-21T05:19:41;12.57;;;4.38;;
68484;SDS011;55472;50.060;21.960;2024-02-21T05:22:07;13.55;;;5.10;;
68484;SDS011;55472;50.060;21.960;2024-02-21T05:24:33;16.43;;;4.40;;
68484;SDS011;55472;50.060;21.960;2024-02-21T05:26:59;18.75;;;5.53;;
68484;SDS011;55472;50.060;21.960;2024-02-21T05:29:25;13.30;;;4.72;;
68484;SDS011;55472;50.060;21.960;2024-02-21T05:34:18;15.67;;;6.33;;
68484;SDS011;55472;50.060;21.960;2024-02-21T05:36:45;17.20;;;6.57;;
68484;SDS011;55472;50.060;21.960;2024-02-21T05:39:12;14.25;;;6.18;;
68484;SDS011;55472;50.060;21.960;2024-02-21T05:41:40;13.43;;;5.57;;
68484;SDS011;55472;50.060;21.960;2024-02-21T05:44:06;12.18;;;5.10;;
68484;SDS011;55472;50.060;21.960;2024-02-21T05:46:32;13.57;;;4.23;;
68484;SDS011;55472;50.060;21.960;2024-02-21T05:48:58;16.20;;;5.05;;
68484;SDS011;55472;50.060;21.960;2024-02-21T05:51:25;18.52;;;6.00;;
68484;SDS011;55472;50.060;21.960;2024-02-21T05:53:50;9.90;;;3.90;;
68484;SDS011;55472;50.060;21.960;2024-02-21T05:56:17;11.60;;;4.32;;
68484;SDS011;55472;50.060;21.960;2024-02-21T05:58:43;9.47;;;4.10;;
68484;SDS011;55472;50.060;21.960;2024-02-21T06:01:10;9.90;;;3.38;;
68484;SDS011;55472;50.060;21.960;2024-02-21T06:03:37;12.48;;;4.03;;
68484;SDS011;55472;50.060;21.960;2024-02-21T06:06:04;10.25;;;3.55;;
68484;SDS011;55472;50.060;21.960;2024-02-21T06:08:31;12.88;;;4.35;;
68484;SDS011;55472;50.060;21.960;2024-02-21T06:10:57;13.93;;;3.83;;
68484;SDS011;55472;50.060;21.960;2024-02-21T06:13:23;9.45;;;3.50;;
68484;SDS011;55472;50.060;21.960;2024-02-21T06:15:50;9.32;;;3.58;;
68484;SDS011;55472;50.060;21.960;2024-02-21T06:18:19;12.68;;;3.42;;
68484;SDS011;55472;50.060;21.960;2024-02-21T06:20:46;9.23;;;3.40;;
68484;SDS011;55472;50.060;21.960;2024-02-21T06:23:13;11.95;;;3.42;;
68484;SDS011;55472;50.060;21.960;2024-02-21T06:25:42;11.85;;;3.70;;
68484;SDS011;55472;50.060;21.960;2024-02-21T06:28:08;13.63;;;4.13;;
68484;SDS011;55472;50.060;21.960;2024-02-21T06:30:35;16.13;;;4.57;;
68484;SDS011;55472;50.060;21.960;2024-02-21T06:33:01;11.90;;;3.80;;
68484;SDS011;55472;50.060;21.960;2024-02-21T06:35:30;17.45;;;5.22;;
68484;SDS011;55472;50.060;21.960;2024-02-21T06:37:56;12.75;;;4.45;;
68484;SDS011;55472;50.060;21.960;2024-02-21T06:40:22;16.25;;;4.70;;
68484;SDS011;55472;50.060;21.960;2024-02-21T06:42:49;17.42;;;6.18;;
68484;SDS011;55472;50.060;21.960;2024-02-21T06:45:16;17.60;;;6.07;;
68484;SDS011;55472;50.060;21.960;2024-02-21T06:47:42;14.77;;;4.70;;
68484;SDS011;55472;50.060;21.960;2024-02-21T06:50:09;15.52;;;4.72;;
68484;SDS011;55472;50.060;21.960;2024-02-21T06:52:38;14.50;;;4.85;;
68484;SDS011;55472;50.060;21.960;2024-02-21T06:55:04;20.65;;;8.18;;
68484;SDS011;55472;50.060;21.960;2024-02-21T06:57:30;14.17;;;5.77;;
68484;SDS011;55472;50.060;21.960;2024-02-21T06:59:57;17.30;;;7.30;;
68484;SDS011;55472;50.060;21.960;2024-02-21T07:02:23;11.18;;;4.43;;
68484;SDS011;55472;50.060;21.960;2024-02-21T07:04:49;13.15;;;3.85;;
68484;SDS011;55472;50.060;21.960;2024-02-21T07:07:15;11.20;;;3.97;;
68484;SDS011;55472;50.060;21.960;2024-02-21T07:09:41;10.07;;;3.77;;
68484;SDS011;55472;50.060;21.960;2024-02-21T07:12:07;10.35;;;4.00;;
68484;SDS011;55472;50.060;21.960;2024-02-21T07:14:33;11.10;;;3.58;;
68484;SDS011;55472;50.060;21.960;2024-02-21T07:17:01;10.68;;;4.00;;
68484;SDS011;55472;50.060;21.960;2024-02-21T07:19:27;9.80;;;3.15;;
68484;SDS011;55472;50.060;21.960;2024-02-21T07:21:53;11.53;;;3.80;;
68484;SDS011;55472;50.060;21.960;2024-02-21T07:24:19;9.27;;;3.30;;
68484;SDS011;55472;50.060;21.960;2024-02-21T07:26:45;15.48;;;5.25;;
68484;SDS011;55472;50.060;21.960;2024-02-21T07:29:11;11.30;;;4.43;;
68484;SDS011;55472;50.060;21.960;2024-02-21T07:31:41;15.23;;;7.00;;
68484;SDS011;55472;50.060;21.960;2024-02-21T07:34:08;14.95;;;5.13;;
68484;SDS011;55472;50.060;21.960;2024-02-21T07:36:34;11.80;;;4.65;;
68484;SDS011;55472;50.060;21.960;2024-02-21T07:39:03;11.18;;;3.70;;
68484;SDS011;55472;50.060;21.960;2024-02-21T07:41:30;12.20;;;3.88;;
68484;SDS011;55472;50.060;21.960;2024-02-21T07:43:56;11.43;;;3.70;;
68484;SDS011;55472;50.060;21.960;2024-02-21T07:46:23;12.73;;;4.32;;
68484;SDS011;55472;50.060;21.960;2024-02-21T07:48:50;15.52;;;4.53;;
68484;SDS011;55472;50.060;21.960;2024-02-21T07:51:16;11.85;;;4.60;;
68484;SDS011;55472;50.060;21.960;2024-02-21T07:53:43;12.25;;;4.25;;
68484;SDS011;55472;50.060;21.960;2024-02-21T07:56:11;13.43;;;3.97;;
68484;SDS011;55472;50.060;21.960;2024-02-21T07:58:37;14.43;;;5.18;;
68484;SDS011;55472;50.060;21.960;2024-02-21T08:01:03;14.13;;;4.30;;
68484;SDS011;55472;50.060;21.960;2024-02-21T08:03:30;12.93;;;4.32;;
68484;SDS011;55472;50.060;21.960;2024-02-21T08:05:56;12.70;;;3.88;;
68484;SDS011;55472;50.060;21.960;2024-02-21T08:08:22;13.13;;;3.80;;
68484;SDS011;55472;50.060;21.960;2024-02-21T08:10:51;11.50;;;3.63;;
68484;SDS011;55472;50.060;21.960;2024-02-21T08:13:17;14.45;;;4.32;;
68484;SDS011;55472;50.060;21.960;2024-02-21T08:15:43;12.23;;;3.35;;
68484;SDS011;55472;50.060;21.960;2024-02-21T08:18:10;14.77;;;3.50;;
68484;SDS011;55472;50.060;21.960;2024-02-21T08:20:36;9.93;;;3.33;;
68484;SDS011;55472;50.060;21.960;2024-02-21T08:23:02;11.98;;;3.42;;
68484;SDS011;55472;50.060;21.960;2024-02-21T08:25:28;11.68;;;3.75;;
68484;SDS011;55472;50.060;21.960;2024-02-21T08:27:57;11.05;;;2.90;;
68484;SDS011;55472;50.060;21.960;2024-02-21T08:30:24;16.15;;;3.25;;
68484;SDS011;55472;50.060;21.960;2024-02-21T08:32:50;8.40;;;2.63;;
68484;SDS011;55472;50.060;21.960;2024-02-21T08:35:17;9.68;;;2.67;;
68484;SDS011;55472;50.060;21.960;2024-02-21T08:37:50;14.52;;;2.97;;
68484;SDS011;55472;50.060;21.960;2024-02-21T08:40:16;9.35;;;2.75;;
68484;SDS011;55472;50.060;21.960;2024-02-21T08:42:45;9.32;;;3.50;;
68484;SDS011;55472;50.060;21.960;2024-02-21T08:45:11;11.57;;;4.27;;
68484;SDS011;55472;50.060;21.960;2024-02-21T08:47:41;8.93;;;2.75;;
68484;SDS011;55472;50.060;21.960;2024-02-21T08:50:08;8.30;;;2.38;;
68484;SDS011;55472;50.060;21.960;2024-02-21T08:52:35;9.68;;;2.35;;
68484;SDS011;55472;50.060;21.960;2024-02-21T08:55:02;10.85;;;1.92;;
68484;SDS011;55472;50.060;21.960;2024-02-21T08:57:28;11.10;;;2.43;;
68484;SDS011;55472;50.060;21.960;2024-02-21T08:59:55;9.70;;;2.47;;
68484;SDS011;55472;50.060;21.960;2024-02-21T09:02:21;11.30;;;2.85;;
68484;SDS011;55472;50.060;21.960;2024-02-21T09:04:48;11.32;;;2.70;;
68484;SDS011;55472;50.060;21.960;2024-02-21T09:07:15;10.05;;;2.70;;
68484;SDS011;55472;50.060;21.960;2024-02-21T09:09:40;9.73;;;2.60;;
68484;SDS011;55472;50.060;21.960;2024-02-21T09:12:07;12.48;;;3.25;;
68484;SDS011;55472;50.060;21.960;2024-02-21T09:14:33;15.30;;;5.40;;
68484;SDS011;55472;50.060;21.960;2024-02-21T09:17:03;17.35;;;6.22;;
68484;SDS011;55472;50.060;21.960;2024-02-21T09:19:29;19.42;;;4.22;;
68484;SDS011;55472;50.060;21.960;2024-02-21T09:21:55;12.10;;;3.33;;
68484;SDS011;55472;50.060;21.960;2024-02-21T09:24:21;13.27;;;3.10;;
68484;SDS011;55472;50.060;21.960;2024-02-21T09:26:47;14.05;;;3.80;;
68484;SDS011;55472;50.060;21.960;2024-02-21T09:29:15;19.83;;;5.75;;
68484;SDS011;55472;50.060;21.960;2024-02-21T09:31:42;11.33;;;4.30;;
68484;SDS011;55472;50.060;21.960;2024-02-21T09:34:11;12.20;;;4.00;;
68484;SDS011;55472;50.060;21.960;2024-02-21T09:36:37;11.00;;;3.88;;
68484;SDS011;55472;50.060;21.960;2024-02-21T09:39:05;15.40;;;4.80;;
68484;SDS011;55472;50.060;21.960;2024-02-21T09:41:31;8.98;;;4.05;;
68484;SDS011;55472;50.060;21.960;2024-02-21T09:44:02;7.70;;;2.50;;
68484;SDS011;55472;50.060;21.960;2024-02-21T09:52:02;6.35;;;1.73;;
68484;SDS011;55472;50.060;21.960;2024-02-21T09:54:32;6.93;;;2.08;;
68484;SDS011;55472;50.060;21.960;2024-02-21T09:56:59;10.13;;;3.47;;
68484;SDS011;55472;50.060;21.960;2024-02-21T09:59:31;10.57;;;2.70;;
68484;SDS011;55472;50.060;21.960;2024-02-21T10:01:58;6.22;;;2.25;;
68484;SDS011;55472;50.060;21.960;2024-02-21T10:04:29;10.32;;;2.95;;
68484;SDS011;55472;50.060;21.960;2024-02-21T10:06:56;8.20;;;2.55;;
68484;SDS011;55472;50.060;21.960;2024-02-21T10:09:23;9.80;;;2.70;;
68484;SDS011;55472;50.060;21.960;2024-02-21T10:11:53;8.95;;;2.88;;
68484;SDS011;55472;50.060;21.960;2024-02-21T10:14:20;7.65;;;2.25;;
68484;SDS011;55472;50.060;21.960;2024-02-21T10:16:56;9.40;;;2.28;;
68484;SDS011;55472;50.060;21.960;2024-02-21T10:19:24;6.80;;;2.28;;
68484;SDS011;55472;50.060;21.960;2024-02-21T10:24:33;7.70;;;2.67;;
68484;SDS011;55472;50.060;21.960;2024-02-21T10:27:07;8.27;;;2.67;;
68484;SDS011;55472;50.060;21.960;2024-02-21T10:29:36;9.93;;;3.45;;
68484;SDS011;55472;50.060;21.960;2024-02-21T10:32:06;9.60;;;2.80;;
68484;SDS011;55472;50.060;21.960;2024-02-21T10:34:33;6.57;;;2.25;;
68484;SDS011;55472;50.060;21.960;2024-02-21T10:37:01;6.90;;;2.17;;
68484;SDS011;55472;50.060;21.960;2024-02-21T10:39:36;7.63;;;2.15;;
68484;SDS011;55472;50.060;21.960;2024-02-21T10:42:07;6.47;;;1.80;;
68484;SDS011;55472;50.060;21.960;2024-02-21T10:44:39;7.85;;;1.95;;
68484;SDS011;55472;50.060;21.960;2024-02-21T10:47:10;5.67;;;2.00;;
68484;SDS011;55472;50.060;21.960;2024-02-21T10:49:42;6.72;;;2.10;;
68484;SDS011;55472;50.060;21.960;2024-02-21T10:52:22;6.35;;;2.00;;
68484;SDS011;55472;50.060;21.960;2024-02-21T10:55:03;6.80;;;1.93;;
68484;SDS011;55472;50.060;21.960;2024-02-21T10:57:36;6.50;;;2.00;;
68484;SDS011;55472;50.060;21.960;2024-02-21T11:00:03;6.03;;;1.70;;
68484;SDS011;55472;50.060;21.960;2024-02-21T11:02:33;8.20;;;2.95;;
68484;SDS011;55472;50.060;21.960;2024-02-21T11:05:00;12.63;;;3.80;;
68484;SDS011;55472;50.060;21.960;2024-02-21T11:07:29;7.82;;;2.95;;
68484;SDS011;55472;50.060;21.960;2024-02-21T11:09:57;10.70;;;2.60;;
68484;SDS011;55472;50.060;21.960;2024-02-21T11:12:25;6.77;;;1.87;;
68484;SDS011;55472;50.060;21.960;2024-02-21T11:14:52;7.60;;;2.30;;
68484;SDS011;55472;50.060;21.960;2024-02-21T11:17:33;8.93;;;2.45;;
68484;SDS011;55472;50.060;21.960;2024-02-21T11:20:09;10.10;;;2.95;;
68484;SDS011;55472;50.060;21.960;2024-02-21T11:22:43;9.90;;;3.10;;
68484;SDS011;55472;50.060;21.960;2024-02-21T11:25:09;7.90;;;2.37;;
68484;SDS011;55472;50.060;21.960;2024-02-21T11:27:38;8.93;;;2.00;;
68484;SDS011;55472;50.060;21.960;2024-02-21T11:30:11;5.78;;;1.90;;
68484;SDS011;55472;50.060;21.960;2024-02-21T11:32:39;7.45;;;2.30;;
68484;SDS011;55472;50.060;21.960;2024-02-21T11:35:06;7.88;;;2.22;;
68484;SDS011;55472;50.060;21.960;2024-02-21T11:37:34;8.27;;;1.90;;
68484;SDS011;55472;50.060;21.960;2024-02-21T11:40:05;6.80;;;1.77;;
68484;SDS011;55472;50.060;21.960;2024-02-21T11:42:35;8.10;;;2.08;;
68484;SDS011;55472;50.060;21.960;2024-02-21T11:45:01;8.32;;;1.90;;
68484;SDS011;55472;50.060;21.960;2024-02-21T11:47:28;7.93;;;2.10;;
68484;SDS011;55472;50.060;21.960;2024-02-21T11:49:54;6.82;;;2.00;;
68484;SDS011;55472;50.060;21.960;2024-02-21T11:52:24;17.63;;;3.17;;
68484;SDS011;55472;50.060;21.960;2024-02-21T11:54:51;31.77;;;4.55;;
68484;SDS011;55472;50.060;21.960;2024-02-21T11:57:18;12.68;;;2.38;;
68484;SDS011;55472;50.060;21.960;2024-02-21T11:59:45;18.83;;;4.13;;
68484;SDS011;55472;50.060;21.960;2024-02-21T12:02:12;19.05;;;4.95;;
68484;SDS011;55472;50.060;21.960;2024-02-21T12:04:39;24.63;;;6.18;;
68484;SDS011;55472;50.060;21.960;2024-02-21T12:07:05;22.13;;;4.97;;
68484;SDS011;55472;50.060;21.960;2024-02-21T12:09:33;45.95;;;8.90;;
68484;SDS011;55472;50.060;21.960;2024-02-21T12:12:01;18.27;;;6.10;;
68484;SDS011;55472;50.060;21.960;2024-02-21T12:14:32;9.63;;;4.28;;
68484;SDS011;55472;50.060;21.960;2024-02-21T12:17:00;20.50;;;5.03;;
68484;SDS011;55472;50.060;21.960;2024-02-21T12:19:30;58.50;;;10.35;;
68484;SDS011;55472;50.060;21.960;2024-02-21T12:21:58;55.55;;;9.07;;
68484;SDS011;55472;50.060;21.960;2024-02-21T12:24:26;19.77;;;4.23;;
68484;SDS011;55472;50.060;21.960;2024-02-21T12:26:54;45.78;;;7.63;;
68484;SDS011;55472;50.060;21.960;2024-02-21T12:29:25;11.02;;;2.90;;
68484;SDS011;55472;50.060;21.960;2024-02-21T12:31:51;45.85;;;8.82;;
68484;SDS011;55472;50.060;21.960;2024-02-21T12:34:19;28.10;;;5.82;;
68484;SDS011;55472;50.060;21.960;2024-02-21T12:36:45;19.60;;;5.20;;
68484;SDS011;55472;50.060;21.960;2024-02-21T12:39:12;14.00;;;4.78;;
68484;SDS011;55472;50.060;21.960;2024-02-21T12:41:39;10.75;;;3.42;;
68484;SDS011;55472;50.060;21.960;2024-02-21T12:44:06;11.55;;;3.90;;
68484;SDS011;55472;50.060;21.960;2024-02-21T12:46:33;7.32;;;2.47;;
68484;SDS011;55472;50.060;21.960;2024-02-21T12:49:00;7.27;;;2.37;;
68484;SDS011;55472;50.060;21.960;2024-02-21T12:51:28;11.63;;;2.90;;
68484;SDS011;55472;50.060;21.960;2024-02-21T12:53:57;12.35;;;3.58;;
68484;SDS011;55472;50.060;21.960;2024-02-21T12:56:24;6.20;;;2.08;;
68484;SDS011;55472;50.060;21.960;2024-02-21T12:58:52;6.22;;;1.88;;
68484;SDS011;55472;50.060;21.960;2024-02-21T13:01:19;6.63;;;1.97;;
68484;SDS011;55472;50.060;21.960;2024-02-21T13:03:46;6.72;;;1.70;;
68484;SDS011;55472;50.060;21.960;2024-02-21T13:06:12;18.30;;;4.05;;
68484;SDS011;55472;50.060;21.960;2024-02-21T13:08:39;17.80;;;5.28;;
68484;SDS011;55472;50.060;21.960;2024-02-21T13:11:06;19.98;;;4.43;;
68484;SDS011;55472;50.060;21.960;2024-02-21T13:13:33;13.17;;;3.97;;
68484;SDS011;55472;50.060;21.960;2024-02-21T13:15:58;18.45;;;5.40;;
68484;SDS011;55472;50.060;21.960;2024-02-21T13:18:25;23.13;;;5.28;;
68484;SDS011;55472;50.060;21.960;2024-02-21T13:20:51;14.07;;;4.05;;
68484;SDS011;55472;50.060;21.960;2024-02-21T13:23:17;17.47;;;4.67;;
68484;SDS011;55472;50.060;21.960;2024-02-21T13:25:43;11.50;;;3.20;;
68484;SDS011;55472;50.060;21.960;2024-02-21T13:28:12;10.90;;;3.28;;
68484;SDS011;55472;50.060;21.960;2024-02-21T13:30:40;9.18;;;2.35;;
68484;SDS011;55472;50.060;21.960;2024-02-21T13:33:06;17.05;;;4.32;;
68484;SDS011;55472;50.060;21.960;2024-02-21T13:35:33;8.37;;;2.70;;
68484;SDS011;55472;50.060;21.960;2024-02-21T13:38:00;11.93;;;2.30;;
68484;SDS011;55472;50.060;21.960;2024-02-21T13:40:26;10.25;;;2.10;;
68484;SDS011;55472;50.060;21.960;2024-02-21T13:42:53;11.07;;;2.75;;
68484;SDS011;55472;50.060;21.960;2024-02-21T13:45:19;20.35;;;4.03;;
68484;SDS011;55472;50.060;21.960;2024-02-21T13:47:45;13.23;;;3.23;;
68484;SDS011;55472;50.060;21.960;2024-02-21T13:50:13;9.30;;;2.22;;
68484;SDS011;55472;50.060;21.960;2024-02-21T13:52:40;10.00;;;2.67;;
68484;SDS011;55472;50.060;21.960;2024-02-21T13:55:06;9.07;;;2.88;;
68484;SDS011;55472;50.060;21.960;2024-02-21T13:57:36;9.10;;;2.80;;
68484;SDS011;55472;50.060;21.960;2024-02-21T14:00:03;9.73;;;2.23;;
68484;SDS011;55472;50.060;21.960;2024-02-21T14:02:30;8.45;;;2.53;;
68484;SDS011;55472;50.060;21.960;2024-02-21T14:04:56;31.10;;;11.05;;
68484;SDS011;55472;50.060;21.960;2024-02-21T14:07:23;31.30;;;10.52;;
68484;SDS011;55472;50.060;21.960;2024-02-21T14:09:50;25.10;;;9.60;;
68484;SDS011;55472;50.060;21.960;2024-02-21T14:12:16;121.43;;;47.80;;
68484;SDS011;55472;50.060;21.960;2024-02-21T14:14:45;54.83;;;20.30;;
68484;SDS011;55472;50.060;21.960;2024-02-21T14:17:11;136.35;;;49.13;;
68484;SDS011;55472;50.060;21.960;2024-02-21T14:19:38;185.25;;;66.10;;
68484;SDS011;55472;50.060;21.960;2024-02-21T14:22:04;150.65;;;55.80;;
68484;SDS011;55472;50.060;21.960;2024-02-21T14:24:31;60.33;;;23.13;;
68484;SDS011;55472;50.060;21.960;2024-02-21T14:26:57;116.60;;;33.30;;
68484;SDS011;55472;50.060;21.960;2024-02-21T14:29:23;19.73;;;6.43;;
68484;SDS011;55472;50.060;21.960;2024-02-21T14:31:49;12.07;;;4.03;;
68484;SDS011;55472;50.060;21.960;2024-02-21T14:34:15;39.50;;;8.50;;
68484;SDS011;55472;50.060;21.960;2024-02-21T14:36:42;24.33;;;6.30;;
68484;SDS011;55472;50.060;21.960;2024-02-21T14:39:07;21.58;;;5.45;;